createdAt,value
2022-10-11T00:01:35.429Z,15.60
2022-10-11T00:04:02.282Z,15.60
2022-10-11T00:06:28.949Z,15.60
2022-10-11T00:08:55.767Z,15.60
2022-10-11T00:11:22.482Z,15.60
2022-10-11T00:13:49.156Z,15.60
2022-10-11T00:16:15.852Z,15.50
2022-10-11T00:18:42.911Z,15.50
2022-10-11T00:21:12.928Z,15.50
2022-10-11T00:23:40.678Z,15.60
2022-10-11T00:26:09.542Z,15.50
2022-10-11T00:28:37.695Z,15.50
2022-10-11T00:31:13.374Z,15.50
2022-10-11T00:33:40.387Z,15.60
2022-10-11T00:36:08.609Z,15.60
2022-10-11T00:38:36.100Z,15.60
2022-10-11T00:41:02.902Z,15.60
2022-10-11T00:43:31.579Z,15.80
2022-10-11T00:45:58.231Z,16.00
2022-10-11T00:48:32.515Z,16.00
2022-10-11T00:51:02.800Z,16.10
2022-10-11T00:53:31.739Z,16.10
2022-10-11T00:56:07.379Z,16.10
2022-10-11T00:58:36.308Z,16.10
2022-10-11T01:01:03.689Z,15.90
2022-10-11T01:03:31.535Z,15.70
2022-10-11T01:05:58.292Z,15.50
2022-10-11T01:08:26.963Z,15.40
2022-10-11T01:10:54.123Z,15.40
2022-10-11T01:13:23.756Z,15.50
2022-10-11T01:16:13.750Z,15.30
2022-10-11T01:19:03.472Z,15.20
2022-10-11T01:21:44.219Z,15.30
2022-10-11T01:24:27.240Z,15.30
2022-10-11T01:27:09.672Z,15.20
2022-10-11T01:29:42.359Z,15.20
2022-10-11T01:32:21.847Z,15.20
2022-10-11T01:34:56.020Z,15.30
2022-10-11T01:37:38.838Z,15.30
2022-10-11T01:40:29.329Z,15.40
2022-10-11T01:42:57.390Z,15.60
2022-10-11T01:45:25.510Z,15.80
2022-10-11T01:48:13.230Z,15.70
2022-10-11T01:50:51.987Z,15.60
2022-10-11T01:53:37.864Z,15.60
2022-10-11T01:56:29.045Z,15.70
2022-10-11T01:59:14.767Z,15.80
2022-10-11T02:01:55.459Z,15.70
2022-10-11T02:04:37.848Z,15.70
2022-10-11T02:07:30.711Z,15.80
2022-10-11T02:10:07.117Z,15.90
2022-10-11T02:12:48.522Z,15.70
2022-10-11T02:15:17.240Z,15.60
2022-10-11T02:17:49.294Z,15.70
2022-10-11T02:20:20.905Z,15.60
2022-10-11T02:22:52.360Z,15.50
2022-10-11T02:25:26.356Z,15.50
2022-10-11T02:27:56.617Z,15.30
2022-10-11T02:30:23.477Z,15.40
2022-10-11T02:32:52.701Z,15.30
2022-10-11T02:35:20.113Z,15.30
2022-10-11T02:38:05.481Z,15.30
2022-10-11T02:40:43.183Z,15.30
2022-10-11T02:43:24.005Z,15.20
2022-10-11T02:46:00.347Z,15.10
2022-10-11T02:48:29.311Z,15.10
2022-10-11T02:50:57.233Z,15.10
2022-10-11T02:53:25.368Z,15.10
2022-10-11T02:55:54.056Z,15.40
2022-10-11T02:58:21.907Z,15.50
2022-10-11T03:00:49.106Z,15.60
2022-10-11T03:03:15.899Z,15.70
2022-10-11T03:05:43.530Z,15.60
2022-10-11T03:08:16.112Z,15.70
2022-10-11T03:10:43.555Z,15.60
2022-10-11T03:13:11.456Z,15.60
2022-10-11T03:15:40.448Z,15.60
2022-10-11T03:18:07.094Z,15.50
2022-10-11T03:20:33.828Z,15.60
2022-10-11T03:23:00.494Z,15.60
2022-10-11T03:25:27.159Z,15.60
2022-10-11T03:27:53.855Z,15.70
2022-10-11T03:30:20.677Z,15.80
2022-10-11T03:32:47.459Z,15.80
2022-10-11T03:35:14.465Z,15.70
2022-10-11T03:37:41.192Z,15.70
2022-10-11T03:40:08.852Z,15.80
2022-10-11T03:42:36.428Z,15.80
2022-10-11T03:45:07.912Z,15.80
2022-10-11T03:47:38.804Z,15.70
2022-10-11T03:50:07.123Z,15.70
2022-10-11T03:52:35.143Z,15.70
2022-10-11T03:55:01.846Z,15.70
2022-10-11T03:57:28.559Z,15.70
2022-10-11T03:59:55.219Z,15.70
2022-10-11T04:02:21.965Z,15.70
2022-10-11T04:04:48.711Z,15.70
2022-10-11T04:07:15.459Z,15.70
2022-10-11T04:09:42.221Z,15.50
2022-10-11T04:12:08.951Z,15.40
2022-10-11T04:14:35.630Z,15.30
2022-10-11T04:17:02.281Z,15.40
2022-10-11T04:19:29.080Z,15.40
2022-10-11T04:21:56.221Z,15.50
2022-10-11T04:24:23.121Z,15.50
2022-10-11T04:26:49.793Z,15.40
2022-10-11T04:29:16.477Z,15.30
2022-10-11T04:31:43.255Z,15.30
2022-10-11T04:34:09.924Z,15.40
2022-10-11T04:36:36.721Z,15.30
2022-10-11T04:39:03.512Z,15.40
2022-10-11T04:41:30.208Z,15.40
2022-10-11T04:43:56.975Z,15.50
2022-10-11T04:46:24.146Z,15.40
2022-10-11T04:48:51.345Z,15.40
2022-10-11T04:51:18.252Z,15.40
2022-10-11T04:53:45.028Z,15.40
2022-10-11T04:56:12.005Z,15.40
2022-10-11T04:58:42.335Z,15.40
2022-10-11T05:01:09.311Z,15.20
2022-10-11T05:03:36.691Z,15.30
2022-10-11T05:06:05.916Z,15.20
2022-10-11T05:08:33.584Z,15.30
2022-10-11T05:11:02.585Z,15.30
2022-10-11T05:13:30.556Z,15.20
2022-10-11T05:15:57.765Z,15.10
2022-10-11T05:18:24.652Z,15.00
2022-10-11T05:21:01.895Z,15.00
2022-10-11T05:23:29.795Z,15.00
2022-10-11T05:25:56.836Z,14.90
2022-10-11T05:28:23.743Z,15.00
2022-10-11T05:30:50.528Z,15.10
2022-10-11T05:33:17.288Z,15.10
2022-10-11T05:35:44.426Z,15.10
2022-10-11T05:38:11.407Z,15.10
2022-10-11T05:40:38.998Z,15.10
2022-10-11T05:43:06.239Z,15.10
2022-10-11T05:45:36.846Z,15.10
2022-10-11T05:48:03.660Z,15.10
2022-10-11T05:50:30.525Z,15.00
2022-10-11T05:52:57.866Z,15.00
2022-10-11T05:55:24.597Z,15.00
2022-10-11T05:57:55.772Z,15.00
2022-10-11T06:00:24.209Z,14.90
2022-10-11T06:02:50.908Z,14.80
2022-10-11T06:05:17.992Z,14.90
2022-10-11T06:07:44.730Z,14.90
2022-10-11T06:10:11.369Z,15.00
2022-10-11T06:12:38.784Z,15.00
2022-10-11T06:15:06.721Z,15.10
2022-10-11T06:17:33.504Z,15.00
2022-10-11T06:20:00.163Z,14.90
2022-10-11T06:22:27.428Z,14.90
2022-10-11T06:24:54.158Z,15.00
2022-10-11T06:27:20.883Z,15.00
2022-10-11T06:29:47.570Z,15.00
2022-10-11T06:32:14.323Z,15.00
2022-10-11T06:34:41.105Z,15.10
2022-10-11T06:37:07.915Z,15.20
2022-10-11T06:39:34.959Z,15.20
2022-10-11T06:42:01.885Z,15.20
2022-10-11T06:44:29.300Z,15.20
2022-10-11T06:46:55.995Z,15.20
2022-10-11T06:49:23.639Z,15.10
2022-10-11T06:51:50.864Z,15.20
2022-10-11T06:54:17.700Z,15.40
2022-10-11T06:56:45.676Z,15.60
2022-10-11T06:59:13.482Z,15.80
2022-10-11T07:01:40.508Z,15.90
2022-10-11T07:04:08.089Z,15.80
2022-10-11T07:06:39.217Z,15.70
2022-10-11T07:09:07.132Z,15.70
2022-10-11T07:11:34.872Z,15.90
2022-10-11T07:14:07.425Z,15.90
2022-10-11T07:16:36.016Z,16.00
2022-10-11T07:19:04.940Z,16.10
2022-10-11T07:21:33.393Z,16.10
2022-10-11T07:24:00.743Z,16.30
2022-10-11T07:26:31.299Z,16.40
2022-10-11T07:29:00.768Z,16.50
2022-10-11T07:31:27.636Z,16.60
2022-10-11T07:33:54.653Z,16.70
2022-10-11T07:36:23.220Z,16.80
2022-10-11T07:38:50.526Z,16.90
2022-10-11T07:41:17.339Z,16.90
2022-10-11T07:43:44.255Z,17.00
2022-10-11T07:46:11.210Z,17.10
2022-10-11T07:48:38.678Z,17.20
2022-10-11T07:51:26.361Z,17.20
2022-10-11T07:53:56.077Z,17.30
2022-10-11T07:56:28.266Z,17.30
2022-10-11T07:59:00.533Z,17.30
2022-10-11T08:01:28.636Z,17.40
2022-10-11T08:03:59.039Z,17.50
2022-10-11T08:06:30.150Z,17.50
2022-10-11T08:08:59.514Z,17.40
2022-10-11T08:11:32.432Z,17.40
2022-10-11T08:14:01.080Z,17.60
2022-10-11T08:16:28.097Z,17.30
2022-10-11T08:18:56.836Z,17.50
2022-10-11T08:21:24.190Z,17.70
2022-10-11T08:23:50.944Z,17.30
2022-10-11T08:26:17.891Z,17.90
2022-10-11T08:28:44.694Z,17.80
2022-10-11T08:31:16.194Z,17.60
2022-10-11T08:33:43.402Z,17.60
2022-10-11T08:36:10.928Z,17.70
2022-10-11T08:38:39.224Z,17.70
2022-10-11T08:41:26.897Z,17.90
2022-10-11T08:44:11.855Z,18.00
2022-10-11T08:46:39.892Z,18.10
2022-10-11T08:49:09.766Z,18.10
2022-10-11T08:51:52.474Z,18.30
2022-10-11T08:54:46.871Z,18.40
2022-10-11T08:57:21.020Z,18.60
2022-10-11T08:59:57.850Z,18.70
2022-10-11T09:03:08.096Z,18.50
2022-10-11T09:05:46.435Z,18.50
2022-10-11T09:15:01.226Z,17.70
2022-10-11T09:18:05.007Z,17.50
2022-10-11T09:20:44.593Z,17.20
2022-10-11T09:23:23.308Z,17.10
2022-10-11T09:26:05.616Z,17.30
2022-10-11T09:28:47.680Z,17.50
2022-10-11T09:31:14.716Z,17.50
2022-10-11T09:33:44.035Z,17.70
2022-10-11T09:36:32.343Z,17.90
2022-10-11T09:39:06.338Z,18.10
2022-10-11T09:42:00.678Z,18.30
2022-10-11T09:44:31.250Z,18.30
2022-10-11T09:46:58.887Z,18.50
2022-10-11T09:49:32.160Z,18.80
2022-10-11T09:52:02.476Z,18.90
2022-10-11T09:55:02.068Z,19.00
2022-10-11T09:57:31.439Z,19.10
2022-10-11T10:00:16.737Z,19.40
2022-10-11T10:02:49.306Z,19.60
2022-10-11T10:05:20.572Z,19.70
2022-10-11T10:08:08.864Z,19.90
2022-10-11T10:10:39.047Z,20.00
2022-10-11T10:13:19.035Z,20.10
2022-10-11T10:15:48.516Z,20.20
2022-10-11T10:18:37.517Z,20.50
2022-10-11T10:21:10.426Z,20.70
2022-10-11T10:23:37.701Z,20.80
2022-10-11T10:26:17.837Z,21.00
2022-10-11T10:29:10.497Z,21.10
2022-10-11T10:32:13.313Z,21.20
2022-10-11T10:34:52.820Z,21.30
2022-10-11T10:37:43.952Z,21.50
2022-10-11T10:40:28.945Z,21.60
2022-10-11T10:42:55.730Z,21.70
2022-10-11T10:45:28.294Z,22.00
2022-10-11T10:48:41.729Z,22.30
2022-10-11T10:51:37.107Z,22.70
2022-10-11T10:54:14.048Z,22.90
2022-10-11T10:57:06.183Z,23.40
2022-10-11T10:59:46.313Z,24.20
2022-10-11T11:02:47.174Z,24.60
2022-10-11T11:05:31.593Z,25.10
2022-10-11T11:08:10.187Z,25.80
2022-10-11T11:11:07.331Z,26.70
2022-10-11T11:13:47.165Z,27.30
2022-10-11T11:16:40.859Z,28.40
2022-10-11T11:19:13.863Z,29.60
2022-10-11T11:21:59.599Z,31.20
2022-10-11T11:24:35.318Z,33.10
2022-10-11T11:27:14.590Z,34.20
2022-10-11T11:29:56.416Z,34.70
2022-10-11T11:32:44.852Z,34.70
2022-10-11T11:35:36.813Z,35.50
2022-10-11T11:38:32.939Z,35.50
2022-10-11T11:41:02.826Z,36.50
2022-10-11T11:43:38.788Z,36.00
2022-10-11T11:46:13.863Z,36.10
2022-10-11T11:48:41.152Z,36.20
2022-10-11T11:51:37.390Z,37.40
2022-10-11T11:54:48.882Z,38.00
2022-10-11T11:57:36.929Z,37.50
2022-10-11T12:00:13.181Z,37.00
2022-10-11T12:03:09.633Z,37.40
2022-10-11T12:05:36.822Z,37.40
2022-10-11T12:08:06.055Z,38.00
2022-10-11T12:10:32.829Z,38.10
2022-10-11T12:13:20.129Z,38.80
2022-10-11T12:16:10.166Z,39.60
2022-10-11T12:18:50.840Z,40.10
2022-10-11T12:21:22.607Z,40.10
2022-10-11T12:23:52.427Z,40.30
2022-10-11T12:26:28.023Z,39.80
2022-10-11T12:29:00.809Z,39.40
2022-10-11T12:31:32.325Z,39.70
2022-10-11T12:34:02.395Z,40.10
2022-10-11T12:36:32.088Z,40.30
2022-10-11T12:39:20.544Z,40.70
2022-10-11T12:41:55.015Z,40.80
2022-10-11T12:44:23.321Z,40.90
2022-10-11T12:46:55.650Z,41.20
2022-10-11T12:49:25.386Z,41.10
2022-10-11T12:52:00.011Z,41.70
2022-10-11T12:54:42.145Z,40.20
2022-10-11T12:57:12.126Z,39.40
2022-10-11T12:59:45.067Z,39.60
2022-10-11T13:02:36.336Z,40.50
2022-10-11T13:05:22.488Z,40.20
2022-10-11T13:07:50.710Z,40.50
2022-10-11T13:10:24.406Z,40.40
2022-10-11T13:12:53.113Z,39.90
2022-10-11T13:15:22.426Z,40.10
2022-10-11T13:17:50.387Z,40.60
2022-10-11T13:20:17.446Z,40.10
2022-10-11T13:22:49.858Z,39.80
2022-10-11T13:25:23.599Z,39.30
2022-10-11T13:27:53.218Z,38.90
2022-10-11T13:30:26.495Z,39.50
2022-10-11T13:32:54.090Z,39.80
2022-10-11T13:35:28.235Z,40.10
2022-10-11T13:37:55.353Z,39.90
2022-10-11T13:40:23.292Z,39.50
2022-10-11T13:42:52.350Z,39.10
2022-10-11T13:45:24.696Z,38.60
2022-10-11T13:47:54.155Z,38.40
2022-10-11T13:50:34.238Z,38.20
2022-10-11T13:53:08.446Z,38.40
2022-10-11T13:55:42.707Z,38.60
2022-10-11T13:58:21.531Z,37.90
2022-10-11T14:00:55.504Z,35.50
2022-10-11T14:03:24.774Z,33.30
2022-10-11T14:05:59.983Z,31.40
2022-10-11T14:08:47.969Z,30.40
2022-10-11T14:11:15.665Z,29.70
2022-10-11T14:13:42.252Z,29.10
2022-10-11T14:16:13.210Z,28.40
2022-10-11T14:18:51.491Z,28.10
2022-10-11T14:21:43.318Z,27.80
2022-10-11T14:24:13.045Z,27.50
2022-10-11T14:26:42.765Z,27.10
2022-10-11T14:29:17.919Z,26.60
2022-10-11T14:31:44.675Z,26.40
2022-10-11T14:34:20.702Z,26.40
2022-10-11T14:36:48.032Z,26.60
2022-10-11T14:39:17.968Z,26.20
2022-10-11T14:41:45.129Z,26.10
2022-10-11T14:44:12.395Z,26.00
2022-10-11T14:46:40.787Z,26.10
2022-10-11T14:49:22.071Z,26.00
2022-10-11T14:51:50.209Z,25.80
2022-10-11T14:54:18.996Z,25.60
2022-10-11T14:56:46.513Z,25.40
2022-10-11T14:59:16.472Z,25.50
2022-10-11T15:01:43.389Z,25.40
2022-10-11T15:04:10.438Z,25.40
2022-10-11T15:06:40.454Z,25.40
2022-10-11T15:09:08.002Z,25.30
2022-10-11T15:11:37.750Z,25.30
2022-10-11T15:14:06.281Z,25.30
2022-10-11T15:16:33.983Z,25.20
2022-10-11T15:19:00.717Z,25.10
2022-10-11T15:21:28.969Z,25.00
2022-10-11T15:23:56.695Z,25.00
2022-10-11T15:26:29.055Z,25.00
2022-10-11T15:28:57.202Z,24.90
2022-10-11T15:31:23.978Z,24.90
2022-10-11T15:33:50.925Z,24.80
2022-10-11T15:36:21.196Z,24.70
2022-10-11T15:38:48.588Z,24.60
2022-10-11T15:41:17.412Z,24.60
2022-10-11T15:43:45.337Z,24.40
2022-10-11T15:46:17.698Z,24.30
2022-10-11T15:48:45.711Z,24.30
2022-10-11T15:51:12.603Z,24.30
2022-10-11T15:53:39.575Z,24.20
2022-10-11T15:56:09.524Z,24.10
2022-10-11T15:58:38.889Z,24.00
2022-10-11T16:01:16.975Z,24.00
2022-10-11T16:03:44.978Z,23.90
2022-10-11T16:06:12.904Z,23.90
2022-10-11T16:08:40.018Z,23.80
2022-10-11T16:11:08.158Z,23.60
2022-10-11T16:13:35.923Z,23.60
2022-10-11T16:16:05.011Z,23.40
2022-10-11T16:18:35.399Z,23.40
2022-10-11T16:21:07.862Z,23.30
2022-10-11T16:23:35.397Z,23.20
2022-10-11T16:26:05.570Z,23.10
2022-10-11T16:28:33.354Z,22.90
2022-10-11T16:31:00.336Z,22.80
2022-10-11T16:33:27.092Z,22.70
2022-10-11T16:36:14.407Z,22.60
2022-10-11T16:38:41.089Z,22.60
2022-10-11T16:41:07.750Z,22.50
2022-10-11T16:43:34.480Z,22.30
2022-10-11T16:46:01.205Z,22.30
2022-10-11T16:48:27.950Z,22.20
2022-10-11T16:50:54.673Z,22.10
2022-10-11T16:53:21.893Z,22.00
2022-10-11T16:55:48.955Z,22.00
2022-10-11T16:58:15.871Z,21.90
2022-10-11T17:00:43.158Z,21.80
2022-10-11T17:03:09.903Z,21.70
2022-10-11T17:05:37.764Z,21.60
2022-10-11T17:08:04.523Z,21.60
2022-10-11T17:10:48.080Z,21.60
2022-10-11T17:13:14.759Z,21.50
2022-10-11T17:15:41.671Z,21.50
2022-10-11T17:18:08.367Z,21.40
2022-10-11T17:20:35.101Z,21.40
2022-10-11T17:23:01.838Z,21.30
2022-10-11T17:25:28.599Z,21.20
2022-10-11T17:27:56.232Z,21.20
2022-10-11T17:30:24.328Z,21.10
2022-10-11T17:32:52.076Z,21.10
2022-10-11T17:35:19.034Z,21.00
2022-10-11T17:37:45.973Z,21.00
2022-10-11T17:40:12.655Z,21.00
2022-10-11T17:42:39.283Z,21.00
2022-10-11T17:45:06.726Z,20.90
2022-10-11T17:47:33.717Z,20.90
2022-10-11T17:50:00.386Z,20.80
2022-10-11T17:52:27.287Z,20.70
2022-10-11T17:54:53.954Z,20.60
2022-10-11T17:57:20.595Z,20.60
2022-10-11T17:59:47.240Z,20.60
2022-10-11T18:02:14.629Z,20.60
2022-10-11T18:04:41.946Z,20.50
2022-10-11T18:07:12.073Z,20.50
2022-10-11T18:09:38.730Z,20.50
2022-10-11T18:12:05.516Z,20.40
2022-10-11T18:14:32.252Z,20.30
2022-10-11T18:16:58.970Z,20.30
2022-10-11T18:19:25.664Z,20.20
2022-10-11T18:21:52.462Z,20.20
2022-10-11T18:24:19.116Z,20.10
2022-10-11T18:26:46.237Z,20.00
2022-10-11T18:29:13.268Z,20.10
2022-10-11T18:31:40.876Z,20.10
2022-10-11T18:34:10.695Z,20.00
2022-10-11T18:36:38.031Z,19.90
2022-10-11T18:39:07.656Z,19.90
2022-10-11T18:41:35.265Z,19.90
2022-10-11T18:44:05.358Z,19.90
2022-10-11T18:46:32.514Z,19.90
2022-10-11T18:49:01.889Z,19.80
2022-10-11T18:51:36.622Z,19.80
2022-10-11T18:54:05.142Z,19.80
2022-10-11T18:56:32.935Z,19.70
2022-10-11T18:59:00.090Z,19.60
2022-10-11T19:01:28.301Z,19.60
2022-10-11T19:03:57.288Z,19.60
2022-10-11T19:06:27.377Z,19.60
2022-10-11T19:08:58.967Z,19.50
2022-10-11T19:11:25.821Z,19.50
2022-10-11T19:14:02.907Z,19.40
2022-10-11T19:16:30.173Z,19.40
2022-10-11T19:18:57.677Z,19.40
2022-10-11T19:21:24.870Z,19.40
2022-10-11T19:23:52.274Z,19.40
2022-10-11T19:26:26.236Z,19.30
2022-10-11T19:29:07.952Z,19.20
2022-10-11T19:31:36.996Z,19.20
2022-10-11T19:34:03.714Z,19.10
2022-10-11T19:36:35.567Z,19.00
2022-10-11T19:39:04.908Z,19.00
2022-10-11T19:41:31.759Z,19.00
2022-10-11T19:43:58.534Z,19.00
2022-10-11T19:46:53.443Z,19.00
2022-10-11T19:49:15.726Z,19.00
2022-10-11T19:51:42.478Z,19.00
2022-10-11T19:54:12.028Z,19.00
2022-10-11T19:56:38.810Z,19.00
2022-10-11T19:59:08.500Z,19.00
2022-10-11T20:01:36.392Z,19.00
2022-10-11T20:04:06.292Z,19.00
2022-10-11T20:06:38.543Z,19.00
2022-10-11T20:11:53.851Z,19.00
2022-10-11T20:14:20.595Z,18.90
2022-10-11T20:16:50.065Z,18.90
2022-10-11T20:19:17.301Z,18.90
2022-10-11T20:21:44.930Z,18.90
2022-10-11T20:24:11.634Z,18.90
2022-10-11T20:26:39.089Z,18.80
2022-10-11T20:29:06.232Z,18.80
2022-10-11T20:31:34.754Z,18.80
2022-10-11T20:34:04.891Z,18.80
2022-10-11T20:36:32.984Z,18.80
2022-10-11T20:39:00.440Z,18.80
2022-10-11T20:41:31.639Z,18.80
2022-10-11T20:43:59.834Z,18.80
2022-10-11T20:46:32.968Z,18.80
2022-10-11T20:49:08.026Z,18.80
2022-10-11T20:51:37.070Z,18.80
2022-10-11T20:54:04.774Z,18.80
2022-10-11T20:56:31.910Z,18.80
2022-10-11T20:58:59.139Z,18.80
2022-10-11T21:01:28.236Z,18.80
2022-10-11T21:03:58.120Z,18.70
2022-10-11T21:06:25.339Z,18.70
2022-10-11T21:08:53.871Z,18.70
2022-10-11T21:11:20.520Z,18.70
2022-10-11T21:13:47.329Z,18.70
2022-10-11T21:16:16.424Z,18.70
2022-10-11T21:18:43.204Z,18.70
2022-10-11T21:21:12.548Z,18.70
2022-10-11T21:23:39.979Z,18.70
2022-10-11T21:26:09.468Z,18.70
2022-10-11T21:28:36.633Z,18.60
2022-10-11T21:31:08.371Z,18.50
2022-10-11T21:33:35.964Z,18.50
2022-10-11T21:36:07.595Z,18.50
2022-10-11T21:38:35.143Z,18.50
2022-10-11T21:41:06.374Z,18.50
2022-10-11T21:43:35.731Z,18.50
2022-10-11T21:46:15.924Z,18.50
2022-10-11T21:48:42.780Z,18.50
2022-10-11T21:51:15.569Z,18.40
2022-10-11T21:53:42.276Z,18.40
2022-10-11T21:56:09.200Z,18.40
2022-10-11T21:58:35.894Z,18.40
2022-10-11T22:01:03.163Z,18.30
2022-10-11T22:03:29.891Z,18.20
2022-10-11T22:05:56.532Z,18.20
2022-10-11T22:08:23.161Z,18.10
2022-10-11T22:10:56.159Z,18.10
2022-10-11T22:13:23.516Z,18.10
2022-10-11T22:15:50.346Z,18.10
2022-10-11T22:18:17.162Z,18.10
2022-10-11T22:20:43.965Z,18.10
2022-10-11T22:23:11.443Z,18.10
2022-10-11T22:25:39.120Z,18.10
2022-10-11T22:28:06.524Z,18.20
2022-10-11T22:30:33.644Z,18.10
2022-10-11T22:33:00.749Z,18.00
2022-10-11T22:35:27.486Z,18.00
2022-10-11T22:37:54.111Z,18.00
2022-10-11T22:40:21.536Z,18.00
2022-10-11T22:42:48.481Z,18.00
2022-10-11T22:45:15.236Z,17.90
2022-10-11T22:47:41.971Z,17.90
2022-10-11T22:50:08.933Z,17.90
2022-10-11T22:52:35.567Z,17.90
2022-10-11T22:55:02.292Z,17.90
2022-10-11T22:57:29.528Z,17.90
2022-10-11T22:59:56.273Z,17.80
2022-10-11T23:02:22.907Z,17.70
2022-10-11T23:04:49.616Z,17.60
2022-10-11T23:07:16.298Z,17.40
2022-10-11T23:09:43.001Z,17.50
2022-10-11T23:12:09.696Z,17.50
2022-10-11T23:14:36.700Z,17.40
2022-10-11T23:17:03.428Z,17.40
2022-10-11T23:19:30.162Z,17.40
2022-10-11T23:21:56.900Z,17.40
2022-10-11T23:24:23.850Z,17.40
2022-10-11T23:26:50.477Z,17.50
2022-10-11T23:29:17.225Z,17.30
2022-10-11T23:31:47.174Z,17.30
2022-10-11T23:34:14.576Z,17.40
2022-10-11T23:36:41.264Z,17.50
2022-10-11T23:39:10.328Z,17.60
2022-10-11T23:41:37.019Z,17.50
2022-10-11T23:44:03.850Z,17.30
2022-10-11T23:46:30.748Z,17.30
2022-10-11T23:48:57.496Z,17.30
2022-10-11T23:51:24.157Z,17.30
2022-10-11T23:53:50.937Z,17.40
2022-10-11T23:56:17.694Z,17.40
2022-10-11T23:58:44.382Z,17.30
